createdAt,value
2016-05-16T00:00:30.631Z,22.71
2016-05-16T00:01:30.774Z,22.76
2016-05-16T00:02:30.809Z,22.73
2016-05-16T00:03:30.795Z,22.73
2016-05-16T00:04:30.814Z,22.73
2016-05-16T00:05:30.847Z,22.78
2016-05-16T00:06:30.835Z,22.79
2016-05-16T00:07:30.853Z,22.73
2016-05-16T00:08:30.872Z,22.79
2016-05-16T00:09:30.874Z,22.81
2016-05-16T00:10:30.877Z,22.76
2016-05-16T00:11:30.722Z,22.73
2016-05-16T00:12:30.741Z,22.66
2016-05-16T00:13:30.917Z,22.75
2016-05-16T00:14:30.747Z,22.66
2016-05-16T00:15:30.750Z,22.78
2016-05-16T00:16:30.924Z,22.67
2016-05-16T00:17:30.942Z,22.71
2016-05-16T00:18:30.929Z,22.78
2016-05-16T00:19:30.963Z,22.71
2016-05-16T00:20:30.825Z,22.76
2016-05-16T00:21:30.969Z,22.71
2016-05-16T00:22:31.018Z,22.7
2016-05-16T00:23:31.005Z,22.81
2016-05-16T00:24:30.711Z,22.81
2016-05-16T00:25:30.855Z,22.79
2016-05-16T00:26:31.029Z,22.78
2016-05-16T00:27:31.032Z,22.75
2016-05-16T00:28:31.051Z,22.76
2016-05-16T00:29:31.053Z,22.73
2016-05-16T00:30:31.056Z,22.75
2016-05-16T00:31:31.058Z,22.76
2016-05-16T00:32:31.077Z,22.67
2016-05-16T00:33:31.095Z,22.64
2016-05-16T00:34:31.098Z,22.75
2016-05-16T00:35:31.678Z,22.76
2016-05-16T00:36:30.947Z,22.71
2016-05-16T00:37:31.137Z,22.76
2016-05-16T00:38:30.967Z,22.73
2016-05-16T00:39:31.158Z,22.67
2016-05-16T00:40:31.145Z,22.75
2016-05-16T00:41:31.179Z,22.75
2016-05-16T00:42:31.025Z,22.71
2016-05-16T00:43:31.216Z,22.79
2016-05-16T00:44:31.186Z,22.78
2016-05-16T00:45:31.205Z,22.67
2016-05-16T00:46:31.224Z,22.71
2016-05-16T00:47:31.242Z,22.73
2016-05-16T00:48:31.244Z,22.67
2016-05-16T00:49:31.247Z,22.73
2016-05-16T00:50:31.110Z,22.66
2016-05-16T00:51:31.283Z,22.75
2016-05-16T00:52:31.099Z,22.73
2016-05-16T00:53:31.289Z,22.71
2016-05-16T00:54:31.277Z,22.69
2016-05-16T00:55:31.294Z,22.76
2016-05-16T00:56:31.297Z,22.73
2016-05-16T00:57:31.316Z,22.75
2016-05-16T00:58:31.335Z,22.75
2016-05-16T00:59:31.336Z,22.71
2016-05-16T01:00:31.386Z,22.69
2016-05-16T01:01:31.389Z,22.7
2016-05-16T01:02:31.345Z,22.69
2016-05-16T01:03:31.363Z,22.76
2016-05-16T01:04:31.381Z,22.73
2016-05-16T01:05:32.025Z,22.78
2016-05-16T01:06:31.386Z,22.73
2016-05-16T01:07:31.421Z,22.69
2016-05-16T01:08:31.439Z,22.67
2016-05-16T01:09:31.457Z,22.71
2016-05-16T01:10:31.429Z,22.7
2016-05-16T01:11:31.462Z,22.69
2016-05-16T01:12:31.340Z,22.67
2016-05-16T01:13:31.468Z,22.7
2016-05-16T01:14:31.487Z,22.57
2016-05-16T01:15:31.489Z,22.7
2016-05-16T01:16:31.491Z,22.66
2016-05-16T01:17:31.510Z,22.7
2016-05-16T01:18:31.341Z,22.67
2016-05-16T01:19:31.516Z,22.69
2016-05-16T01:20:31.378Z,22.67
2016-05-16T01:21:31.552Z,22.7
2016-05-16T01:22:31.538Z,22.55
2016-05-16T01:23:31.574Z,22.6
2016-05-16T01:24:31.577Z,22.71
2016-05-16T01:25:31.594Z,22.69
2016-05-16T01:26:31.581Z,22.64
2016-05-16T01:27:31.585Z,22.55
2016-05-16T01:28:31.601Z,22.7
2016-05-16T01:29:31.621Z,22.66
2016-05-16T01:30:31.467Z,22.66
2016-05-16T01:31:31.485Z,22.7
2016-05-16T01:32:31.644Z,22.67
2016-05-16T01:33:31.335Z,22.71
2016-05-16T01:34:31.681Z,22.61
2016-05-16T01:35:31.730Z,22.6
2016-05-16T01:36:31.686Z,22.67
2016-05-16T01:37:31.705Z,22.6
2016-05-16T01:38:31.707Z,22.59
2016-05-16T01:39:31.709Z,22.59
2016-05-16T01:40:31.557Z,22.6
2016-05-16T01:41:31.590Z,22.57
2016-05-16T01:42:31.733Z,22.71
2016-05-16T01:43:31.737Z,22.55
2016-05-16T01:44:31.739Z,22.59
2016-05-16T01:45:31.772Z,22.54
2016-05-16T01:46:31.776Z,22.6
2016-05-16T01:47:31.809Z,22.69
2016-05-16T01:48:31.640Z,22.66
2016-05-16T01:49:31.644Z,22.57
2016-05-16T01:50:32.364Z,22.59
2016-05-16T01:51:31.694Z,22.6
2016-05-16T01:52:31.910Z,22.66
2016-05-16T01:53:31.781Z,22.67
2016-05-16T01:54:31.995Z,22.57
2016-05-16T01:55:32.039Z,22.54
2016-05-16T01:56:32.093Z,22.63
2016-05-16T01:57:31.954Z,22.6
2016-05-16T01:58:32.144Z,22.57
2016-05-16T01:59:32.161Z,22.55
2016-05-16T02:00:32.209Z,22.63
2016-05-16T02:01:32.047Z,22.6
2016-05-16T02:02:32.228Z,22.6
2016-05-16T02:03:32.236Z,22.6
2016-05-16T02:04:32.244Z,22.6
2016-05-16T02:05:32.174Z,22.6
2016-05-16T02:06:32.273Z,22.67
2016-05-16T02:07:32.278Z,22.61
2016-05-16T02:08:32.313Z,22.61
2016-05-16T02:09:32.287Z,22.55
2016-05-16T02:10:32.307Z,22.55
2016-05-16T02:11:32.343Z,22.61
2016-05-16T02:12:32.346Z,22.59
2016-05-16T02:13:32.333Z,22.61
2016-05-16T02:14:32.212Z,22.59
2016-05-16T02:15:32.340Z,22.57
2016-05-16T02:16:32.374Z,22.57
2016-05-16T02:17:32.376Z,22.52
2016-05-16T02:18:32.396Z,22.57
2016-05-16T02:19:32.242Z,22.57
2016-05-16T02:20:32.431Z,22.6
2016-05-16T02:21:32.435Z,22.67
2016-05-16T02:22:32.437Z,22.61
2016-05-16T02:23:32.455Z,22.57
2016-05-16T02:24:32.443Z,22.59
2016-05-16T02:25:32.461Z,22.59
2016-05-16T02:26:32.183Z,22.64
2016-05-16T02:27:32.481Z,22.57
2016-05-16T02:28:32.500Z,22.61
2016-05-16T02:29:32.487Z,22.61
2016-05-16T02:30:32.506Z,22.57
2016-05-16T02:31:32.508Z,22.55
2016-05-16T02:32:32.542Z,22.61
2016-05-16T02:33:32.529Z,22.57
2016-05-16T02:34:32.376Z,22.54
2016-05-16T02:35:32.394Z,22.52
2016-05-16T02:36:32.569Z,22.59
2016-05-16T02:37:32.571Z,22.55
2016-05-16T02:38:32.590Z,22.6
2016-05-16T02:39:32.593Z,22.57
2016-05-16T02:40:32.471Z,22.59
2016-05-16T02:41:32.598Z,22.6
2016-05-16T02:42:32.646Z,22.57
2016-05-16T02:43:32.618Z,22.55
2016-05-16T02:44:32.496Z,22.55
2016-05-16T02:45:32.640Z,22.54
2016-05-16T02:46:32.501Z,22.57
2016-05-16T02:47:32.661Z,22.51
2016-05-16T02:48:32.679Z,22.52
2016-05-16T02:49:32.526Z,22.52
2016-05-16T02:50:32.684Z,22.6
2016-05-16T02:51:32.703Z,22.55
2016-05-16T02:52:32.752Z,22.54
2016-05-16T02:53:32.709Z,22.55
2016-05-16T02:54:32.742Z,22.54
2016-05-16T02:55:32.604Z,22.59
2016-05-16T02:56:32.763Z,22.57
2016-05-16T02:57:32.750Z,22.48
2016-05-16T02:58:32.784Z,22.52
2016-05-16T02:59:32.772Z,22.57
2016-05-16T03:00:32.789Z,22.51
2016-05-16T03:01:32.792Z,22.54
2016-05-16T03:02:32.811Z,22.54
2016-05-16T03:03:32.657Z,22.51
2016-05-16T03:04:32.675Z,22.52
2016-05-16T03:05:32.896Z,22.55
2016-05-16T03:06:32.868Z,22.51
2016-05-16T03:07:32.855Z,22.48
2016-05-16T03:08:32.858Z,22.59
2016-05-16T03:09:32.876Z,22.51
2016-05-16T03:10:32.879Z,22.51
2016-05-16T03:11:32.897Z,22.59
2016-05-16T03:12:32.885Z,22.57
2016-05-16T03:13:32.918Z,22.48
2016-05-16T03:14:32.905Z,22.57
2016-05-16T03:15:32.923Z,22.51
2016-05-16T03:16:32.942Z,22.52
2016-05-16T03:17:32.960Z,22.54
2016-05-16T03:18:32.948Z,22.51
2016-05-16T03:19:32.981Z,22.51
2016-05-16T03:20:33.546Z,22.51
2016-05-16T03:21:32.987Z,22.48
2016-05-16T03:22:32.989Z,22.51
2016-05-16T03:23:32.992Z,22.54
2016-05-16T03:24:33.010Z,22.51
2016-05-16T03:25:33.029Z,22.51
2016-05-16T03:26:32.859Z,22.52
2016-05-16T03:27:33.034Z,22.52
2016-05-16T03:28:33.036Z,22.55
2016-05-16T03:29:33.070Z,22.55
2016-05-16T03:30:33.042Z,22.52
2016-05-16T03:31:33.092Z,22.46
2016-05-16T03:32:33.063Z,22.57
2016-05-16T03:33:33.113Z,22.48
2016-05-16T03:34:32.787Z,22.51
2016-05-16T03:35:32.946Z,22.48
2016-05-16T03:36:33.121Z,22.46
2016-05-16T03:37:33.139Z,22.48
2016-05-16T03:38:33.126Z,22.48
2016-05-16T03:39:33.144Z,22.51
2016-05-16T03:40:33.147Z,22.54
2016-05-16T03:41:33.149Z,22.46
2016-05-16T03:42:33.183Z,22.46
2016-05-16T03:43:33.186Z,22.46
2016-05-16T03:44:33.189Z,22.45
2016-05-16T03:45:33.207Z,22.48
2016-05-16T03:46:33.210Z,22.52
2016-05-16T03:47:33.244Z,22.46
2016-05-16T03:48:33.074Z,22.48
2016-05-16T03:49:33.093Z,22.55
2016-05-16T03:50:33.112Z,22.44
2016-05-16T03:51:33.254Z,22.48
2016-05-16T03:52:33.257Z,22.54
2016-05-16T03:53:33.292Z,22.41
2016-05-16T03:54:33.278Z,22.46
2016-05-16T03:55:33.297Z,22.55
2016-05-16T03:56:33.300Z,22.48
2016-05-16T03:57:33.303Z,22.46
2016-05-16T03:58:33.320Z,22.46
2016-05-16T03:59:33.339Z,22.44
2016-05-16T04:00:33.341Z,22.48
2016-05-16T04:01:33.344Z,22.45
2016-05-16T04:02:33.362Z,22.45
2016-05-16T04:03:33.365Z,22.48
2016-05-16T04:04:33.086Z,22.48
2016-05-16T04:05:34.058Z,22.51
2016-05-16T04:06:33.405Z,22.51
2016-05-16T04:07:33.408Z,22.55
2016-05-16T04:08:33.425Z,22.52
2016-05-16T04:09:33.444Z,22.46
2016-05-16T04:10:33.462Z,22.6
2016-05-16T04:11:33.293Z,22.48
2016-05-16T04:12:33.452Z,22.44
2016-05-16T04:13:33.470Z,22.44
2016-05-16T04:14:33.473Z,22.48
2016-05-16T04:15:33.476Z,22.51
2016-05-16T04:16:33.494Z,22.45
2016-05-16T04:17:33.496Z,22.52
2016-05-16T04:18:33.359Z,22.51
2016-05-16T04:19:33.345Z,22.55
2016-05-16T04:20:33.535Z,22.48
2016-05-16T04:21:33.538Z,22.46
2016-05-16T04:22:33.557Z,22.51
2016-05-16T04:23:33.387Z,22.52
2016-05-16T04:24:33.578Z,22.48
2016-05-16T04:25:33.409Z,22.48
2016-05-16T04:26:33.567Z,22.51
2016-05-16T04:27:33.586Z,22.48
2016-05-16T04:28:33.620Z,22.48
2016-05-16T04:29:33.623Z,22.46
2016-05-16T04:30:33.625Z,22.49
2016-05-16T04:31:33.644Z,22.51
2016-05-16T04:32:33.646Z,22.54
2016-05-16T04:33:33.539Z,22.46
2016-05-16T04:34:33.667Z,22.45
2016-05-16T04:35:34.451Z,22.52
2016-05-16T04:36:33.688Z,22.51
2016-05-16T04:37:33.691Z,22.51
2016-05-16T04:38:33.538Z,22.49
2016-05-16T04:39:33.697Z,22.51
2016-05-16T04:40:33.714Z,22.54
2016-05-16T04:41:33.780Z,22.52
2016-05-16T04:42:33.720Z,22.45
2016-05-16T04:43:33.738Z,22.51
2016-05-16T04:44:33.757Z,22.41
2016-05-16T04:45:33.774Z,22.48
2016-05-16T04:46:33.762Z,22.55
2016-05-16T04:47:33.780Z,22.51
2016-05-16T04:48:33.627Z,22.46
2016-05-16T04:49:33.817Z,22.52
2016-05-16T04:50:34.288Z,22.48
2016-05-16T04:51:33.822Z,22.51
2016-05-16T04:52:33.826Z,22.45
2016-05-16T04:53:33.828Z,22.51
2016-05-16T04:54:33.846Z,22.48
2016-05-16T04:55:33.708Z,22.46
2016-05-16T04:56:33.867Z,22.51
2016-05-16T04:57:33.870Z,22.55
2016-05-16T04:58:33.731Z,22.48
2016-05-16T04:59:33.890Z,22.46
2016-05-16T05:00:33.893Z,22.54
2016-05-16T05:01:33.928Z,22.52
2016-05-16T05:02:33.914Z,22.44
2016-05-16T05:03:33.761Z,22.45
2016-05-16T05:04:33.763Z,22.51
2016-05-16T05:05:33.656Z,22.46
2016-05-16T05:06:33.784Z,22.52
2016-05-16T05:07:33.975Z,22.46
2016-05-16T05:08:33.977Z,22.44
2016-05-16T05:09:33.996Z,22.52
2016-05-16T05:10:33.999Z,22.51
2016-05-16T05:11:33.860Z,22.48
2016-05-16T05:12:33.847Z,22.57
2016-05-16T05:13:34.038Z,22.51
2016-05-16T05:14:34.025Z,22.45
2016-05-16T05:15:33.872Z,22.55
2016-05-16T05:16:33.890Z,22.51
2016-05-16T05:17:34.048Z,22.46
2016-05-16T05:18:34.066Z,22.51
2016-05-16T05:19:34.085Z,22.48
2016-05-16T05:20:34.244Z,22.51
2016-05-16T05:21:34.106Z,22.52
2016-05-16T05:22:34.124Z,22.45
2016-05-16T05:23:34.111Z,22.49
2016-05-16T05:24:34.130Z,22.46
2016-05-16T05:25:34.117Z,22.46
2016-05-16T05:26:33.979Z,22.46
2016-05-16T05:27:34.153Z,22.52
2016-05-16T05:28:34.156Z,22.54
2016-05-16T05:29:34.175Z,22.49
2016-05-16T05:30:34.177Z,22.52
2016-05-16T05:31:34.180Z,22.59
2016-05-16T05:32:34.183Z,22.51
2016-05-16T05:33:34.201Z,22.48
2016-05-16T05:34:34.235Z,22.51
2016-05-16T05:35:34.628Z,22.48
2016-05-16T05:36:34.239Z,22.54
2016-05-16T05:37:34.072Z,22.48
2016-05-16T05:38:34.261Z,22.55
2016-05-16T05:39:34.092Z,22.51
2016-05-16T05:40:34.282Z,22.6
2016-05-16T05:41:34.269Z,22.55
2016-05-16T05:42:34.302Z,22.49
2016-05-16T05:43:34.306Z,22.55
2016-05-16T05:44:34.324Z,22.52
2016-05-16T05:45:34.296Z,22.51
2016-05-16T05:46:34.329Z,22.57
2016-05-16T05:47:34.349Z,22.55
2016-05-16T05:48:34.334Z,22.51
2016-05-16T05:49:34.369Z,22.51
2016-05-16T05:50:34.871Z,22.54
2016-05-16T05:51:34.390Z,22.54
2016-05-16T05:52:34.392Z,22.54
2016-05-16T05:53:34.224Z,22.54
2016-05-16T05:54:34.398Z,22.51
2016-05-16T05:55:34.088Z,22.55
2016-05-16T05:56:34.279Z,22.54
2016-05-16T05:57:34.421Z,22.54
2016-05-16T05:58:34.440Z,22.57
2016-05-16T05:59:34.458Z,22.57
2016-05-16T06:00:34.164Z,22.54
2016-05-16T06:01:34.448Z,22.52
2016-05-16T06:02:34.482Z,22.57
2016-05-16T06:03:34.484Z,22.57
2016-05-16T06:04:34.487Z,22.55
2016-05-16T06:05:34.897Z,22.6
2016-05-16T06:06:34.508Z,22.55
2016-05-16T06:07:34.511Z,22.57
2016-05-16T06:08:34.530Z,22.6
2016-05-16T06:09:34.532Z,22.55
2016-05-16T06:10:34.394Z,22.61
2016-05-16T06:11:34.537Z,22.55
2016-05-16T06:12:34.572Z,22.54
2016-05-16T06:13:34.574Z,22.57
2016-05-16T06:14:34.608Z,22.51
2016-05-16T06:15:34.454Z,22.66
2016-05-16T06:16:34.613Z,22.59
2016-05-16T06:17:34.443Z,22.59
2016-05-16T06:18:34.649Z,22.61
2016-05-16T06:19:34.638Z,22.55
2016-05-16T06:20:34.624Z,22.6
2016-05-16T06:21:34.674Z,22.6
2016-05-16T06:22:34.660Z,22.63
2016-05-16T06:23:34.663Z,22.63
2016-05-16T06:24:34.369Z,22.67
2016-05-16T06:25:34.668Z,22.6
2016-05-16T06:26:34.703Z,22.63
2016-05-16T06:27:34.706Z,22.59
2016-05-16T06:28:34.567Z,22.6
2016-05-16T06:29:34.711Z,22.6
2016-05-16T06:30:34.745Z,22.61
2016-05-16T06:31:34.575Z,22.66
2016-05-16T06:32:34.751Z,22.57
2016-05-16T06:33:34.752Z,22.71
2016-05-16T06:34:34.600Z,22.67
2016-05-16T06:35:34.696Z,22.61
2016-05-16T06:36:34.808Z,22.67
2016-05-16T06:37:34.811Z,22.69
2016-05-16T06:38:34.656Z,22.67
2016-05-16T06:39:34.831Z,22.69
2016-05-16T06:40:34.819Z,22.7
2016-05-16T06:41:34.853Z,22.73
2016-05-16T06:42:34.855Z,22.7
2016-05-16T06:43:34.858Z,22.69
2016-05-16T06:44:34.860Z,22.76
2016-05-16T06:45:34.863Z,22.75
2016-05-16T06:46:34.882Z,22.66
2016-05-16T06:47:34.885Z,22.67
2016-05-16T06:48:34.747Z,22.69
2016-05-16T06:49:34.905Z,22.66
2016-05-16T06:50:34.752Z,22.73
2016-05-16T06:51:34.927Z,22.75
2016-05-16T06:52:34.944Z,22.7
2016-05-16T06:53:34.963Z,22.75
2016-05-16T06:54:34.949Z,22.73
2016-05-16T06:55:34.812Z,22.73
2016-05-16T06:56:34.971Z,22.75
2016-05-16T06:57:34.990Z,22.67
2016-05-16T06:58:34.976Z,22.67
2016-05-16T06:59:35.026Z,22.73
2016-05-16T07:00:35.012Z,22.73
2016-05-16T07:01:35.234Z,22.81
2016-05-16T07:02:35.096Z,22.76
2016-05-16T07:03:35.036Z,22.82
2016-05-16T07:04:34.899Z,22.78
2016-05-16T07:05:35.089Z,22.81
2016-05-16T07:06:35.091Z,22.81
2016-05-16T07:07:35.079Z,22.73
2016-05-16T07:08:35.097Z,22.73
2016-05-16T07:09:35.131Z,22.81
2016-05-16T07:10:35.102Z,22.81
2016-05-16T07:11:35.136Z,22.76
2016-05-16T07:12:35.123Z,22.86
2016-05-16T07:13:35.142Z,22.78
2016-05-16T07:14:35.128Z,22.84
2016-05-16T07:15:35.006Z,22.75
2016-05-16T07:16:35.166Z,22.73
2016-05-16T07:17:35.043Z,22.75
2016-05-16T07:18:35.186Z,22.84
2016-05-16T07:19:35.204Z,22.84
2016-05-16T07:20:35.566Z,22.79
2016-05-16T07:21:35.226Z,22.84
2016-05-16T07:22:35.057Z,22.88
2016-05-16T07:23:35.232Z,22.82
2016-05-16T07:24:35.077Z,22.84
2016-05-16T07:25:35.080Z,22.84
2016-05-16T07:26:35.301Z,22.81
2016-05-16T07:27:35.273Z,22.84
2016-05-16T07:28:35.135Z,22.82
2016-05-16T07:29:35.137Z,22.86
2016-05-16T07:30:35.313Z,22.85
2016-05-16T07:31:35.299Z,22.84
2016-05-16T07:32:35.317Z,22.85
2016-05-16T07:33:35.320Z,22.79
2016-05-16T07:34:35.198Z,22.81
2016-05-16T07:35:35.060Z,22.82
2016-05-16T07:36:35.344Z,22.86
2016-05-16T07:37:35.222Z,22.92
2016-05-16T07:38:35.365Z,22.88
2016-05-16T07:39:35.384Z,22.92
2016-05-16T07:40:35.387Z,22.79
2016-05-16T07:41:35.388Z,22.92
2016-05-16T07:42:35.423Z,22.92
2016-05-16T07:43:35.425Z,22.81
2016-05-16T07:44:35.444Z,22.92
2016-05-16T07:45:35.430Z,22.88
2016-05-16T07:46:35.464Z,22.91
2016-05-16T07:47:35.451Z,22.88
2016-05-16T07:48:35.469Z,22.89
2016-05-16T07:49:35.333Z,22.89
2016-05-16T07:50:35.819Z,22.86
2016-05-16T07:51:35.494Z,22.92
2016-05-16T07:52:35.512Z,22.92
2016-05-16T07:53:35.530Z,22.91
2016-05-16T07:54:35.580Z,22.92
2016-05-16T07:55:35.535Z,22.89
2016-05-16T07:56:35.538Z,22.92
2016-05-16T07:57:35.400Z,22.92
2016-05-16T07:58:35.560Z,22.89
2016-05-16T07:59:35.594Z,22.92
2016-05-16T08:00:35.424Z,22.89
2016-05-16T08:01:35.599Z,22.92
2016-05-16T08:02:35.586Z,22.81
2016-05-16T08:03:35.604Z,22.89
2016-05-16T08:04:35.622Z,22.86
2016-05-16T08:05:35.484Z,22.89
2016-05-16T08:06:35.643Z,22.89
2016-05-16T08:07:35.646Z,22.89
2016-05-16T08:08:35.648Z,22.91
2016-05-16T08:09:35.683Z,22.92
2016-05-16T08:10:35.686Z,22.89
2016-05-16T08:11:35.688Z,22.91
2016-05-16T08:12:35.534Z,22.94
2016-05-16T08:13:35.708Z,22.89
2016-05-16T08:14:35.728Z,22.88
2016-05-16T08:15:35.575Z,22.92
2016-05-16T08:16:35.749Z,22.91
2016-05-16T08:17:35.580Z,22.96
2016-05-16T08:18:35.769Z,22.91
2016-05-16T08:19:44.460Z,22.85
2016-05-16T08:20:35.619Z,22.92
2016-05-16T08:21:35.480Z,22.92
2016-05-16T08:22:35.640Z,22.92
2016-05-16T08:23:35.799Z,22.94
2016-05-16T08:24:35.802Z,22.92
2016-05-16T08:25:35.819Z,22.96
2016-05-16T08:26:35.666Z,22.97
2016-05-16T08:27:35.840Z,22.91
2016-05-16T08:28:35.718Z,22.86
2016-05-16T08:29:35.845Z,22.97
2016-05-16T08:30:35.723Z,22.88
2016-05-16T08:31:35.883Z,22.86
2016-05-16T08:32:35.901Z,22.91
2016-05-16T08:33:35.935Z,22.91
2016-05-16T08:34:35.922Z,22.94
2016-05-16T08:35:36.128Z,22.94
2016-05-16T08:36:35.928Z,22.91
2016-05-16T08:37:35.930Z,22.96
2016-05-16T08:38:35.792Z,22.92
2016-05-16T08:39:35.967Z,22.89
2016-05-16T08:40:35.828Z,22.96
2016-05-16T08:41:35.972Z,22.91
2016-05-16T08:42:35.834Z,22.94
2016-05-16T08:43:35.992Z,22.92
2016-05-16T08:44:35.996Z,22.89
2016-05-16T08:45:35.872Z,22.89
2016-05-16T08:46:36.000Z,22.94
2016-05-16T08:47:36.020Z,22.96
2016-05-16T08:48:36.022Z,22.91
2016-05-16T08:49:36.056Z,22.97
2016-05-16T08:50:36.043Z,22.99
2016-05-16T08:51:36.061Z,23.01
2016-05-16T08:52:36.096Z,23.01
2016-05-16T08:53:36.082Z,23.01
2016-05-16T08:54:35.944Z,23.01
2016-05-16T08:55:36.104Z,22.99
2016-05-16T08:56:36.138Z,22.99
2016-05-16T08:57:36.124Z,22.96
2016-05-16T08:58:36.143Z,23.04
2016-05-16T08:59:36.145Z,23.07
2016-05-16T09:00:35.851Z,23
2016-05-16T09:01:36.025Z,23.03
2016-05-16T09:02:36.153Z,23.04
2016-05-16T09:03:36.172Z,23
2016-05-16T09:04:36.206Z,23
2016-05-16T09:05:36.224Z,23
2016-05-16T09:06:36.054Z,23.01
2016-05-16T09:07:36.073Z,23.01
2016-05-16T09:08:36.217Z,23.06
2016-05-16T09:09:36.250Z,22.99
2016-05-16T09:10:36.237Z,23.03
2016-05-16T09:11:36.240Z,23.06
2016-05-16T09:12:36.306Z,22.99
2016-05-16T09:13:36.292Z,23.01
2016-05-16T09:14:36.295Z,22.94
2016-05-16T09:15:36.297Z,23
2016-05-16T09:16:36.300Z,22.94
2016-05-16T09:17:36.318Z,23.03
2016-05-16T09:18:36.321Z,22.97
2016-05-16T09:19:36.340Z,23.03
2016-05-16T09:20:36.530Z,22.99
2016-05-16T09:21:36.049Z,22.97
2016-05-16T09:22:36.207Z,22.96
2016-05-16T09:23:36.382Z,23.01
2016-05-16T09:24:36.369Z,23.01
2016-05-16T09:25:36.403Z,22.97
2016-05-16T09:26:36.374Z,22.91
2016-05-16T09:27:36.393Z,23
2016-05-16T09:28:36.239Z,23.04
2016-05-16T09:29:36.429Z,23.03
2016-05-16T09:30:36.432Z,23.09
2016-05-16T09:31:36.450Z,23.01
2016-05-16T09:32:36.312Z,23.03
2016-05-16T09:33:36.487Z,23
2016-05-16T09:34:36.490Z,23.01
2016-05-16T09:35:36.555Z,22.97
2016-05-16T09:36:36.495Z,23.1
2016-05-16T09:37:36.513Z,22.94
2016-05-16T09:38:36.531Z,23.01
2016-05-16T09:39:36.550Z,23.01
2016-05-16T09:40:36.537Z,23.06
2016-05-16T09:41:36.398Z,23.01
2016-05-16T09:42:36.542Z,23.03
2016-05-16T09:43:36.545Z,23.01
2016-05-16T09:44:36.595Z,23.06
2016-05-16T09:45:36.581Z,23.03
2016-05-16T09:46:36.584Z,23.01
2016-05-16T09:47:36.602Z,23.01
2016-05-16T09:48:36.464Z,23
2016-05-16T09:49:36.624Z,23.06
2016-05-16T09:50:36.469Z,23.01
2016-05-16T09:51:36.645Z,23
2016-05-16T09:52:36.647Z,23.07
2016-05-16T09:53:36.525Z,23.01
2016-05-16T09:54:36.527Z,23.01
2016-05-16T09:55:36.671Z,22.96
2016-05-16T09:56:36.689Z,23
2016-05-16T09:57:36.708Z,23.07
2016-05-16T09:58:36.695Z,23.04
2016-05-16T09:59:36.729Z,22.96
2016-05-16T10:00:36.716Z,23.04
2016-05-16T10:01:36.749Z,23.01
2016-05-16T10:02:36.752Z,23.03
2016-05-16T10:03:36.598Z,23.01
2016-05-16T10:04:36.773Z,23.01
2016-05-16T10:05:36.463Z,23.03
2016-05-16T10:06:36.779Z,23.04
2016-05-16T10:07:36.641Z,23.04
2016-05-16T10:08:36.784Z,23.06
2016-05-16T10:09:36.662Z,23.03
2016-05-16T10:10:36.805Z,23.01
2016-05-16T10:11:36.839Z,23.09
2016-05-16T10:12:36.842Z,23.12
2016-05-16T10:13:37.360Z,23.01
2016-05-16T10:14:37.598Z,23.01
2016-05-16T10:15:36.975Z,23.03
2016-05-16T10:16:36.884Z,23.01
2016-05-16T10:17:45.417Z,23
2016-05-16T10:18:36.920Z,23.07
2016-05-16T10:19:36.922Z,23.03
2016-05-16T10:20:37.192Z,23.04
2016-05-16T10:21:36.928Z,23.06
2016-05-16T10:22:36.947Z,23
2016-05-16T10:23:36.950Z,23
2016-05-16T10:24:36.968Z,23.04
2016-05-16T10:25:36.971Z,23.01
2016-05-16T10:26:36.988Z,23.03
2016-05-16T10:27:36.991Z,23.04
2016-05-16T10:28:37.010Z,23.03
2016-05-16T10:29:37.013Z,23.03
2016-05-16T10:30:37.016Z,23.03
2016-05-16T10:31:37.002Z,23.06
2016-05-16T10:32:37.036Z,23.04
2016-05-16T10:33:37.023Z,23.04
2016-05-16T10:34:36.745Z,23.04
2016-05-16T10:35:37.075Z,23.1
2016-05-16T10:36:36.922Z,23.06
2016-05-16T10:37:37.065Z,23
2016-05-16T10:38:37.098Z,23.01
2016-05-16T10:39:37.102Z,23.01
2016-05-16T10:40:37.121Z,23.01
2016-05-16T10:41:37.139Z,23.03
2016-05-16T10:42:36.985Z,23.04
2016-05-16T10:43:37.144Z,23.06
2016-05-16T10:44:37.147Z,23.07
2016-05-16T10:45:37.164Z,23.09
2016-05-16T10:46:37.011Z,23.07
2016-05-16T10:47:37.186Z,23.04
2016-05-16T10:48:37.189Z,23.1
2016-05-16T10:49:37.191Z,23.09
2016-05-16T10:50:37.053Z,23.1
2016-05-16T10:51:37.211Z,23.14
2016-05-16T10:52:37.059Z,23.16
2016-05-16T10:53:37.264Z,23.14
2016-05-16T10:54:37.080Z,23.16
2016-05-16T10:55:37.083Z,23.15
2016-05-16T10:56:37.100Z,23.18
2016-05-16T10:57:37.159Z,23.12
2016-05-16T10:58:37.350Z,23.14
2016-05-16T10:59:37.430Z,23.12
2016-05-16T11:00:37.496Z,23.15
2016-05-16T11:01:37.529Z,23.04
2016-05-16T11:02:37.584Z,23.1
2016-05-16T11:03:37.464Z,23.09
2016-05-16T11:04:37.639Z,23.07
2016-05-16T11:05:37.456Z,23.12
2016-05-16T11:06:37.679Z,23.15
2016-05-16T11:07:37.688Z,23.1
2016-05-16T11:08:37.712Z,23.14
2016-05-16T11:09:37.736Z,23.09
2016-05-16T11:10:37.729Z,23.07
2016-05-16T11:11:37.754Z,23.12
2016-05-16T11:12:37.775Z,23.1
2016-05-16T11:13:37.779Z,23.1
2016-05-16T11:14:37.800Z,23.04
2016-05-16T11:15:37.679Z,23.06
2016-05-16T11:16:37.654Z,23.15
2016-05-16T11:17:37.829Z,23.09
2016-05-16T11:18:37.832Z,23.12
2016-05-16T11:19:37.837Z,23.09
2016-05-16T11:20:38.120Z,23.1
2016-05-16T11:21:37.718Z,23.12
2016-05-16T11:22:37.863Z,23.14
2016-05-16T11:23:37.911Z,23.12
2016-05-16T11:24:37.915Z,23.12
2016-05-16T11:25:37.761Z,23.18
2016-05-16T11:26:37.905Z,23.14
2016-05-16T11:27:37.939Z,23.24
2016-05-16T11:28:37.942Z,23.15
2016-05-16T11:29:37.960Z,23.21
2016-05-16T11:30:37.964Z,23.21
2016-05-16T11:31:37.981Z,23.26
2016-05-16T11:32:37.797Z,23.25
2016-05-16T11:33:38.019Z,23.32
2016-05-16T11:34:37.974Z,23.26
2016-05-16T11:35:38.039Z,23.29
2016-05-16T11:36:38.010Z,23.29
2016-05-16T11:37:38.029Z,23.26
2016-05-16T11:38:38.047Z,23.38
2016-05-16T11:39:38.050Z,23.26
2016-05-16T11:40:38.037Z,23.26
2016-05-16T11:41:38.055Z,23.24
2016-05-16T11:42:38.073Z,23.37
2016-05-16T11:43:38.076Z,23.35
2016-05-16T11:44:37.938Z,23.34
2016-05-16T11:45:38.096Z,23.42
2016-05-16T11:46:38.116Z,23.4
2016-05-16T11:47:37.946Z,23.41
2016-05-16T11:48:38.137Z,23.37
2016-05-16T11:49:38.140Z,23.53
2016-05-16T11:50:38.251Z,23.44
2016-05-16T11:51:38.426Z,23.44
2016-05-16T11:52:38.022Z,23.53
2016-05-16T11:53:38.181Z,23.41
2016-05-16T11:54:38.200Z,23.41
2016-05-16T11:55:38.031Z,23.45
2016-05-16T11:56:38.205Z,23.44
2016-05-16T11:57:38.239Z,23.4
2016-05-16T11:58:38.225Z,23.44
2016-05-16T11:59:38.073Z,23.47
2016-05-16T12:00:38.091Z,23.57
2016-05-16T12:01:38.250Z,23.44
2016-05-16T12:02:38.268Z,23.47
2016-05-16T12:03:38.270Z,23.52
2016-05-16T12:04:38.305Z,23.55
2016-05-16T12:05:38.682Z,23.45
2016-05-16T12:06:38.310Z,23.48
2016-05-16T12:07:38.156Z,23.47
2016-05-16T12:08:38.175Z,23.53
2016-05-16T12:09:38.208Z,23.47
2016-05-16T12:10:38.336Z,23.52
2016-05-16T12:11:38.355Z,23.55
2016-05-16T12:12:38.373Z,23.56
2016-05-16T12:13:38.376Z,23.64
2016-05-16T12:14:38.394Z,23.6
2016-05-16T12:15:38.397Z,23.57
2016-05-16T12:16:38.259Z,23.6
2016-05-16T12:17:38.402Z,23.63
2016-05-16T12:18:38.435Z,23.59
2016-05-16T12:19:38.423Z,23.59
2016-05-16T12:20:38.456Z,23.64
2016-05-16T12:21:38.443Z,23.66
2016-05-16T12:22:38.463Z,23.71
2016-05-16T12:23:38.465Z,23.59
2016-05-16T12:24:38.484Z,23.59
2016-05-16T12:25:38.501Z,23.57
2016-05-16T12:26:38.332Z,23.48
2016-05-16T12:27:38.351Z,23.56
2016-05-16T12:28:38.572Z,23.53
2016-05-16T12:29:38.403Z,23.53
2016-05-16T12:30:38.234Z,23.52
2016-05-16T12:31:38.393Z,23.6
2016-05-16T12:32:38.552Z,23.64
2016-05-16T12:33:38.414Z,23.67
2016-05-16T12:34:38.588Z,23.67
2016-05-16T12:35:38.700Z,23.66
2016-05-16T12:36:38.608Z,23.59
2016-05-16T12:37:38.612Z,23.67
2016-05-16T12:38:38.615Z,23.72
2016-05-16T12:39:38.649Z,23.62
2016-05-16T12:40:38.636Z,23.66
2016-05-16T12:41:38.654Z,23.7
2016-05-16T12:42:38.672Z,23.67
2016-05-16T12:43:38.518Z,23.77
2016-05-16T12:44:38.677Z,23.74
2016-05-16T12:45:38.696Z,23.75
2016-05-16T12:46:38.699Z,23.72
2016-05-16T12:47:38.701Z,23.78
2016-05-16T12:48:38.704Z,23.74
2016-05-16T12:49:38.582Z,23.77
2016-05-16T12:50:38.584Z,23.82
2016-05-16T12:51:38.744Z,23.75
2016-05-16T12:52:38.761Z,23.79
2016-05-16T12:53:38.780Z,23.77
2016-05-16T12:54:38.783Z,23.82
2016-05-16T12:55:38.801Z,23.78